McConnellsburg, Pennsylvania
Current Conditions -  °F | °C
As of 8:53 AM on Monday 24 Nov 2014 (Local Time) from KHGR Reporting Station
Clear Clear  
Wind Chill: 61°   Ceiling: Unl
Heat Index: 61°   Visibility: 10mi
Dew Point: 55°   Wind: 10mph
Humidity: 81%   Direction: 180°S
Pressure: 29.61"   Gusts: NA
Location:  39.93°N, 78°W
Report Text: KHGR 241353Z 18009KT 10SM CLR 16/13 A2961 RMK AO2 SLP037 T01610128
Loading
Personal Weather Stations






























Interactive Weather Map New forecast layout! Learn more

10-Day Weather Forecast

Advertisements
Track Severe Weather on mobile